Time;durP1;ratioP1;P1;durP2;ratioP2;P2;SDS_P1;SDS_P2;PMS_P1;PMS_P2;Temp;Humidity;BMP_temperature;BMP_pressure;BME280_temperature;BME280_humidity;BME280_pressure;Samples;Min_cycle;Max_cycle;Signal;HPM_P1;HPM_P2
2022/09/05 00:02:35;;;;;;;2.85;1.50;;;;;;;;;;4992233;28;20581;-83
2022/09/05 00:05:30;;;;;;;2.75;1.42;;;;;;;;;;4988100;28;20069;-83
2022/09/05 00:08:25;;;;;;;3.05;2.03;;;;;;;;;;5002626;28;20034;-84
2022/09/05 00:11:16;;;;;;;2.25;1.10;;;;;;;;;;5016269;28;20051;-83
2022/09/05 00:14:12;;;;;;;1.97;1.23;;;;;;;;;;5003391;28;20514;-83
2022/09/05 00:17:09;;;;;;;1.92;1.05;;;;;;;;;;5004571;28;20033;-83
2022/09/05 00:20:07;;;;;;;2.90;1.10;;;;;;;;;;4992048;28;20081;-83
2022/09/05 00:22:58;;;;;;;3.53;1.55;;;;;;;;;;5005865;28;20427;-83
2022/09/05 00:26:07;;;;;;;1.63;0.90;;;;;;;;;;5006053;28;20415;-83
2022/09/05 00:29:31;;;;;;;2.38;1.00;;;;;;;;;;4993517;28;20754;-83
2022/09/05 00:32:44;;;;;;;1.50;1.00;;;;;;;;;;5000993;28;20033;-83
2022/09/05 00:35:52;;;;;;;3.20;1.40;;;;;;;;;;5019069;28;20041;-82
2022/09/05 00:38:39;;;;;;;2.42;1.25;;;;;;;;;;5008047;28;20120;-83
2022/09/05 00:41:26;;;;;;;2.90;1.73;;;;;;;;;;4992678;28;20037;-83
2022/09/05 00:44:11;;;;;;;2.78;1.40;;;;;;;;;;4991924;28;20034;-83
2022/09/05 00:47:07;;;;;;;2.67;1.17;;;;;;;;;;4993167;28;20045;-83
2022/09/05 00:49:59;;;;;;;2.33;1.40;;;;;;;;;;4993352;28;20060;-83
2022/09/05 00:52:49;;;;;;;2.53;1.40;;;;;;;;;;4991825;28;20100;-83
2022/09/05 00:55:54;;;;;;;2.40;1.10;;;;;;;;;;4990828;28;20087;-83
2022/09/05 00:58:40;;;;;;;2.17;1.33;;;;;;;;;;5005172;28;20092;-82
2022/09/05 01:01:46;;;;;;;2.20;1.13;;;;;;;;;;5018151;28;20084;-83
2022/09/05 01:04:43;;;;;;;2.40;1.48;;;;;;;;;;4990366;28;20038;-83
2022/09/05 01:08:10;;;;;;;2.33;1.25;;;;;;;;;;5004942;28;20132;-82
2022/09/05 01:11:19;;;;;;;4.65;1.70;;;;;;;;;;5015980;28;20126;-83
2022/09/05 01:14:19;;;;;;;2.72;1.27;;;;;;;;;;5005410;28;20124;-82
2022/09/05 01:17:29;;;;;;;2.63;1.13;;;;;;;;;;4993053;28;20114;-82
2022/09/05 01:20:43;;;;;;;2.30;1.25;;;;;;;;;;5018346;28;20065;-83
2022/09/05 01:23:51;;;;;;;3.05;1.52;;;;;;;;;;5004979;28;20041;-82
2022/09/05 01:26:53;;;;;;;2.78;1.15;;;;;;;;;;4994395;28;20040;-83
2022/09/05 01:29:55;;;;;;;1.83;1.13;;;;;;;;;;5005439;28;20098;-82
2022/09/05 01:32:50;;;;;;;2.13;0.95;;;;;;;;;;4989627;28;20093;-83
2022/09/05 01:35:59;;;;;;;2.10;1.20;;;;;;;;;;5018444;28;20037;-83
2022/09/05 01:39:07;;;;;;;1.92;1.23;;;;;;;;;;5006701;28;20045;-83
2022/09/05 01:41:59;;;;;;;2.35;1.30;;;;;;;;;;5018044;28;20038;-83
2022/09/05 01:44:54;;;;;;;1.75;1.10;;;;;;;;;;4989992;28;20048;-83
2022/09/05 01:47:45;;;;;;;2.40;1.30;;;;;;;;;;5004572;28;20037;-83
2022/09/05 01:50:47;;;;;;;2.50;1.20;;;;;;;;;;5017247;28;20060;-83
2022/09/05 01:53:45;;;;;;;2.88;1.15;;;;;;;;;;5004152;28;20041;-83
2022/09/05 01:56:52;;;;;;;2.80;1.20;;;;;;;;;;5004282;28;20088;-83
2022/09/05 01:59:56;;;;;;;2.25;1.20;;;;;;;;;;5017903;28;20045;-83
2022/09/05 02:03:07;;;;;;;2.35;1.20;;;;;;;;;;5017346;28;20120;-83
2022/09/05 02:06:01;;;;;;;2.38;1.38;;;;;;;;;;4991728;28;20040;-83
2022/09/05 02:09:09;;;;;;;1.90;1.20;;;;;;;;;;5003961;28;20095;-83
2022/09/05 02:12:14;;;;;;;1.77;1.02;;;;;;;;;;5003945;28;20041;-83
2022/09/05 02:15:02;;;;;;;2.42;1.50;;;;;;;;;;5005454;28;20107;-83
2022/09/05 02:17:51;;;;;;;2.42;1.30;;;;;;;;;;4991004;28;20038;-83
2022/09/05 02:20:39;;;;;;;2.70;1.00;;;;;;;;;;4991053;28;20037;-83
2022/09/05 02:24:06;;;;;;;1.17;0.90;;;;;;;;;;5016505;28;20574;-83
2022/09/05 02:27:13;;;;;;;3.88;1.20;;;;;;;;;;4996371;28;20038;-83
2022/09/05 02:30:24;;;;;;;2.63;1.55;;;;;;;;;;5017209;28;20041;-83
2022/09/05 02:33:18;;;;;;;3.85;1.40;;;;;;;;;;5004059;28;20041;-83
2022/09/05 02:36:27;;;;;;;3.22;1.13;;;;;;;;;;5017312;28;20585;-83
2022/09/05 02:39:33;;;;;;;2.10;1.17;;;;;;;;;;5017116;28;20037;-83
2022/09/05 02:42:26;;;;;;;1.85;1.08;;;;;;;;;;4989351;28;20045;-83
2022/09/05 02:45:25;;;;;;;2.53;1.30;;;;;;;;;;4990527;28;20816;-83
2022/09/05 02:48:34;;;;;;;1.33;1.02;;;;;;;;;;5002799;28;20052;-83
2022/09/05 02:51:46;;;;;;;2.25;1.27;;;;;;;;;;5016285;28;20049;-83
2022/09/05 02:54:38;;;;;;;1.90;1.03;;;;;;;;;;5017101;28;20530;-83
2022/09/05 02:57:45;;;;;;;2.28;1.33;;;;;;;;;;5004054;28;20272;-83
2022/09/05 03:00:37;;;;;;;2.67;1.25;;;;;;;;;;5002893;28;20476;-83
2022/09/05 03:04:10;;;;;;;2.63;1.25;;;;;;;;;;4988146;28;20582;-83
2022/09/05 03:07:05;;;;;;;;;;;;;;;;;;4990996;28;20582;-83
2022/09/05 03:10:14;;;;;;;1.60;0.85;;;;;;;;;;5030307;28;19912;-83
2022/09/05 03:13:37;;;;;;;2.13;1.08;;;;;;;;;;5003869;28;20076;-83
2022/09/05 03:16:38;;;;;;;1.77;1.00;;;;;;;;;;5016602;28;20117;-83
2022/09/05 03:19:28;;;;;;;1.77;1.02;;;;;;;;;;5016350;28;20055;-83
2022/09/05 03:22:23;;;;;;;1.90;1.15;;;;;;;;;;5002946;28;20045;-83
2022/09/05 03:25:54;;;;;;;1.70;1.08;;;;;;;;;;5016029;28;20045;-83
2022/09/05 03:29:12;;;;;;;2.03;1.00;;;;;;;;;;4976390;28;20513;-83
2022/09/05 03:32:20;;;;;;;2.75;1.00;;;;;;;;;;5003001;28;20050;-83
2022/09/05 03:35:31;;;;;;;2.88;1.30;;;;;;;;;;5016366;28;20038;-83
2022/09/05 03:38:38;;;;;;;2.30;1.30;;;;;;;;;;5006524;28;20049;-83
2022/09/05 03:41:43;;;;;;;1.98;1.08;;;;;;;;;;5002652;28;20072;-83
2022/09/05 03:44:38;;;;;;;2.50;1.30;;;;;;;;;;5002923;28;20103;-83
2022/09/05 03:47:43;;;;;;;2.67;1.35;;;;;;;;;;5015846;28;20092;-83
2022/09/05 03:50:58;;;;;;;2.10;1.25;;;;;;;;;;5016281;28;20435;-83
2022/09/05 03:54:23;;;;;;;1.98;1.30;;;;;;;;;;5007069;28;20053;-83
2022/09/05 03:57:46;;;;;;;2.83;1.10;;;;;;;;;;4993803;28;20045;-83
2022/09/05 04:00:35;;;;;;;1.35;0.90;;;;;;;;;;5020002;28;20538;-83
2022/09/05 04:03:26;;;;;;;3.22;1.65;;;;;;;;;;5006505;28;20504;-83
2022/09/05 04:06:46;;;;;;;3.63;1.73;;;;;;;;;;4991233;28;20040;-83
2022/09/05 04:09:52;;;;;;;2.20;1.35;;;;;;;;;;5006573;28;20087;-83
2022/09/05 04:12:46;;;;;;;2.65;1.10;;;;;;;;;;5005953;28;20565;-83
2022/09/05 04:15:39;;;;;;;2.38;1.40;;;;;;;;;;4992720;28;20128;-84
2022/09/05 04:18:27;;;;;;;2.30;1.25;;;;;;;;;;4991442;28;20120;-83
2022/09/05 04:21:13;;;;;;;2.17;1.35;;;;;;;;;;4991380;28;20380;-83
2022/09/05 04:24:06;;;;;;;2.53;1.40;;;;;;;;;;5019091;28;20038;-83
2022/09/05 04:26:59;;;;;;;1.65;1.05;;;;;;;;;;5005859;28;20067;-82
2022/09/05 04:29:58;;;;;;;1.70;1.10;;;;;;;;;;4991233;28;20041;-83
2022/09/05 04:32:49;;;;;;;1.77;1.00;;;;;;;;;;4992800;28;20146;-83
2022/09/05 04:36:03;;;;;;;2.15;1.45;;;;;;;;;;4992973;28;20044;-83
2022/09/05 04:39:17;;;;;;;2.53;1.13;;;;;;;;;;5018089;28;20230;-83
2022/09/05 04:42:03;;;;;;;2.05;1.40;;;;;;;;;;5006841;28;20037;-83
2022/09/05 04:45:03;;;;;;;2.58;1.40;;;;;;;;;;5018734;28;20560;-84
2022/09/05 04:47:51;;;;;;;2.58;1.40;;;;;;;;;;4994474;28;20036;-82
2022/09/05 04:51:04;;;;;;;1.50;1.13;;;;;;;;;;4993015;28;20052;-83
2022/09/05 04:54:16;;;;;;;2.70;1.13;;;;;;;;;;4994452;28;20140;-83
2022/09/05 04:57:18;;;;;;;3.45;1.00;;;;;;;;;;5019426;28;20103;-84
2022/09/05 05:00:05;;;;;;;;;;;;;;;;;;4993196;28;20442;-83
2022/09/05 05:02:53;;;;;;;3.58;1.40;;;;;;;;;;5018592;28;20360;-83
2022/09/05 05:05:48;;;;;;;1.92;1.20;;;;;;;;;;5005582;28;20500;-83
2022/09/05 05:08:54;;;;;;;1.83;1.10;;;;;;;;;;5018733;28;20132;-83
2022/09/05 05:11:50;;;;;;;2.40;1.25;;;;;;;;;;5018663;28;20512;-83
2022/09/05 05:14:41;;;;;;;2.63;1.25;;;;;;;;;;5005239;28;20049;-83
2022/09/05 05:17:33;;;;;;;5.32;1.33;;;;;;;;;;5002763;28;20038;-83
2022/09/05 05:20:21;;;;;;;4.07;1.40;;;;;;;;;;5013909;28;20047;-83
2022/09/05 05:23:13;;;;;;;3.17;1.50;;;;;;;;;;5055520;28;20539;-83
2022/09/05 05:26:00;;;;;;;5.73;1.63;;;;;;;;;;5030974;28;20036;-83
2022/09/05 05:28:52;;;;;;;4.75;1.58;;;;;;;;;;5028651;28;20263;-83
2022/09/05 05:31:48;;;;;;;3.60;1.48;;;;;;;;;;5026930;28;20384;-85
2022/09/05 05:34:50;;;;;;;3.95;1.75;;;;;;;;;;5036992;28;20029;-84
2022/09/05 05:37:39;;;;;;;5.00;2.00;;;;;;;;;;5022385;28;20029;-84
2022/09/05 05:40:34;;;;;;;3.40;1.80;;;;;;;;;;5037272;28;20048;-83
2022/09/05 05:43:25;;;;;;;12.43;5.13;;;;;;;;;;5024641;28;20044;-85
2022/09/05 05:46:14;;;;;;;9.25;3.78;;;;;;;;;;5025023;28;20045;-85
2022/09/05 05:49:17;;;;;;;6.68;2.53;;;;;;;;;;5023388;28;20037;-85
2022/09/05 05:52:12;;;;;;;4.88;2.08;;;;;;;;;;5038802;28;20057;-85
2022/09/05 05:55:11;;;;;;;3.25;2.13;;;;;;;;;;5037894;28;20044;-84
2022/09/05 05:58:18;;;;;;;7.53;3.75;;;;;;;;;;5024197;28;20041;-85
2022/09/05 06:01:23;;;;;;;5.57;2.75;;;;;;;;;;5037081;28;20434;-85
2022/09/05 06:04:45;;;;;;;6.53;2.45;;;;;;;;;;5037662;28;20052;-84
2022/09/05 06:08:09;;;;;;;7.72;2.38;;;;;;;;;;5036846;28;20033;-84
2022/09/05 06:11:13;;;;;;;5.35;2.05;;;;;;;;;;5038366;28;20515;-86
2022/09/05 06:14:34;;;;;;;7.13;2.17;;;;;;;;;;5037787;28;20044;-89
2022/09/05 06:17:59;;;;;;;5.88;2.42;;;;;;;;;;5025525;28;20060;-88
2022/09/05 06:21:20;;;;;;;5.05;2.30;;;;;;;;;;5026142;28;20051;-88
2022/09/05 06:24:34;;;;;;;6.50;2.50;;;;;;;;;;5014943;28;20050;-88
2022/09/05 06:27:35;;;;;;;5.22;1.77;;;;;;;;;;5038970;28;20040;-88
2022/09/05 06:30:24;;;;;;;3.28;1.52;;;;;;;;;;5024236;28;20582;-88
2022/09/05 06:33:25;;;;;;;5.10;2.47;;;;;;;;;;5023548;28;20440;-87
2022/09/05 06:36:35;;;;;;;3.75;1.75;;;;;;;;;;5012163;28;20037;-88
2022/09/05 06:39:49;;;;;;;3.88;1.67;;;;;;;;;;5024075;28;20127;-88
2022/09/05 06:42:37;;;;;;;4.35;1.50;;;;;;;;;;5023462;28;20048;-88
2022/09/05 06:45:33;;;;;;;3.28;1.25;;;;;;;;;;5051659;28;20084;-88
2022/09/05 06:48:23;;;;;;;2.40;1.52;;;;;;;;;;5023191;28;20083;-88
2022/09/05 06:51:17;;;;;;;3.42;1.75;;;;;;;;;;5032514;28;20551;-88
2022/09/05 06:54:03;;;;;;;3.13;1.85;;;;;;;;;;4997310;28;20045;-88
2022/09/05 06:56:31;;;;;;;5.47;1.20;;;;;;;;;;4998663;28;20369;-88
2022/09/05 06:59:08;;;;;;;3.75;1.65;;;;;;;;;;5018362;28;20489;-88
2022/09/05 07:01:41;;;;;;;5.03;1.70;;;;;;;;;;5034574;28;20040;-88
2022/09/05 07:04:22;;;;;;;3.17;1.55;;;;;;;;;;5001574;28;20480;-88
2022/09/05 07:07:02;;;;;;;2.25;1.58;;;;;;;;;;4998713;28;20080;-88
2022/09/05 07:09:32;;;;;;;4.32;1.75;;;;;;;;;;4998378;28;20078;-88
2022/09/05 07:12:25;;;;;;;2.97;1.50;;;;;;;;;;4998717;28;20411;-88
2022/09/05 07:15:01;;;;;;;2.92;1.42;;;;;;;;;;4998302;28;20041;-88
2022/09/05 07:17:54;;;;;;;4.38;1.50;;;;;;;;;;4999088;28;20041;-89
2022/09/05 07:20:26;;;;;;;5.38;2.67;;;;;;;;;;4998222;28;20045;-88
2022/09/05 07:23:06;;;;;;;6.15;4.30;;;;;;;;;;5002945;28;20120;-89
2022/09/05 07:25:31;;;;;;;9.27;6.35;;;;;;;;;;4982857;28;20132;-88
2022/09/05 07:28:04;;;;;;;14.85;9.48;;;;;;;;;;5001895;28;20045;-88
2022/09/05 07:30:30;;;;;;;16.95;13.35;;;;;;;;;;5018603;28;20048;-88
2022/09/05 07:32:55;;;;;;;18.55;10.90;;;;;;;;;;5001855;28;20517;-88
2022/09/05 07:35:28;;;;;;;13.10;9.82;;;;;;;;;;5001288;28;20041;-87
2022/09/05 07:38:13;;;;;;;15.70;10.70;;;;;;;;;;4986035;28;20052;-88
2022/09/05 07:41:19;;;;;;;15.43;10.02;;;;;;;;;;5001839;28;20040;-87
2022/09/05 07:43:45;;;;;;;14.50;9.68;;;;;;;;;;4999959;28;20045;-87
2022/09/05 07:46:30;;;;;;;14.23;10.07;;;;;;;;;;4986035;28;20037;-88
2022/09/05 07:49:01;;;;;;;14.65;10.38;;;;;;;;;;4989389;28;20029;-87
2022/09/05 07:51:28;;;;;;;13.80;9.15;;;;;;;;;;4989382;28;20065;-88
2022/09/05 07:53:57;;;;;;;12.23;8.45;;;;;;;;;;4989281;28;20032;-88
2022/09/05 07:56:43;;;;;;;12.73;8.30;;;;;;;;;;4989131;28;20036;-88
2022/09/05 07:59:13;;;;;;;12.98;9.02;;;;;;;;;;5021345;28;20033;-88
2022/09/05 08:01:41;;;;;;;13.52;7.63;;;;;;;;;;4988817;28;20044;-88
2022/09/05 08:04:07;;;;;;;11.98;6.95;;;;;;;;;;4988602;28;20047;-88
2022/09/05 08:06:32;;;;;;;12.15;7.38;;;;;;;;;;5021244;28;20442;-88
2022/09/05 08:09:05;;;;;;;8.65;6.25;;;;;;;;;;5004490;28;20494;-88
2022/09/05 08:11:31;;;;;;;7.45;5.78;;;;;;;;;;4989136;28;20041;-87
2022/09/05 08:13:58;;;;;;;9.43;5.35;;;;;;;;;;5004684;28;20036;-89
2022/09/05 08:16:23;;;;;;;13.88;8.57;;;;;;;;;;5020764;28;20041;-88
2022/09/05 08:19:26;;;;;;;16.15;10.98;;;;;;;;;;5020578;28;20032;-89
2022/09/05 08:21:52;;;;;;;22.05;14.82;;;;;;;;;;5037082;28;20041;-88
2022/09/05 08:24:25;;;;;;;18.13;13.55;;;;;;;;;;5004639;28;20040;-88
2022/09/05 08:26:58;;;;;;;23.27;17.10;;;;;;;;;;5004229;28;20036;-89
2022/09/05 08:29:36;;;;;;;20.73;16.30;;;;;;;;;;5020739;28;20148;-88
2022/09/05 08:32:15;;;;;;;25.23;17.00;;;;;;;;;;5020426;28;20047;-88
2022/09/05 08:34:55;;;;;;;25.88;19.17;;;;;;;;;;5020594;28;20029;-89
2022/09/05 08:37:24;;;;;;;24.98;17.48;;;;;;;;;;5001583;28;20036;-89
2022/09/05 08:39:51;;;;;;;22.48;15.55;;;;;;;;;;4988482;28;20106;-89
2022/09/05 08:42:32;;;;;;;20.63;14.70;;;;;;;;;;5020501;28;20040;-88
2022/09/05 08:45:16;;;;;;;22.95;15.05;;;;;;;;;;5036931;28;20081;-88
2022/09/05 08:47:55;;;;;;;21.30;15.10;;;;;;;;;;5036773;28;20052;-88
2022/09/05 08:50:20;;;;;;;18.10;13.40;;;;;;;;;;5020824;28;20032;-89
2022/09/05 08:52:53;;;;;;;18.23;12.25;;;;;;;;;;5036739;28;20045;-88
2022/09/05 08:55:32;;;;;;;16.50;12.15;;;;;;;;;;5001520;28;20059;-88
2022/09/05 08:58:02;;;;;;;16.55;11.30;;;;;;;;;;4984549;28;20041;-88
2022/09/05 09:00:31;;;;;;;17.38;11.23;;;;;;;;;;4984908;28;20033;-88
2022/09/05 09:03:15;;;;;;;13.15;9.23;;;;;;;;;;5000130;28;20484;-88
2022/09/05 09:06:05;;;;;;;14.98;9.50;;;;;;;;;;5000409;28;20059;-88
2022/09/05 09:08:59;;;;;;;13.00;8.20;;;;;;;;;;4984028;28;20033;-88
2022/09/05 09:12:01;;;;;;;13.38;8.32;;;;;;;;;;5010469;28;20539;-88
2022/09/05 09:14:44;;;;;;;11.98;7.25;;;;;;;;;;4982537;28;20100;-88
2022/09/05 09:17:34;;;;;;;10.60;8.10;;;;;;;;;;4999962;28;20045;-88
2022/09/05 09:20:08;;;;;;;11.60;8.35;;;;;;;;;;4986574;28;20038;-89
2022/09/05 09:23:00;;;;;;;11.60;7.88;;;;;;;;;;5000224;28;20045;-88
2022/09/05 09:26:04;;;;;;;11.10;8.07;;;;;;;;;;5016696;28;20117;-88
2022/09/05 09:28:42;;;;;;;14.50;11.10;;;;;;;;;;5018195;28;20042;-89
2022/09/05 09:31:17;;;;;;;17.63;12.25;;;;;;;;;;5032783;28;20116;-89
2022/09/05 09:34:31;;;;;;;20.70;14.55;;;;;;;;;;5032840;28;20153;-89
2022/09/05 09:37:08;;;;;;;19.08;13.85;;;;;;;;;;5009905;28;20038;-89
2022/09/05 09:39:48;;;;;;;18.48;13.70;;;;;;;;;;5035941;28;20040;-88
2022/09/05 09:42:44;;;;;;;19.77;14.85;;;;;;;;;;5035696;28;20040;-88
2022/09/05 09:45:18;;;;;;;17.30;13.77;;;;;;;;;;5019735;28;20582;-88
2022/09/05 09:48:02;;;;;;;19.60;13.75;;;;;;;;;;5018660;28;20037;-88
2022/09/05 09:50:55;;;;;;;17.55;12.85;;;;;;;;;;5034817;28;20495;-89
2022/09/05 09:53:39;;;;;;;20.25;12.73;;;;;;;;;;5019202;28;20056;-88
2022/09/05 09:56:05;;;;;;;16.05;11.68;;;;;;;;;;5002834;28;20045;-88
2022/09/05 09:58:40;;;;;;;15.48;10.90;;;;;;;;;;5014690;28;20131;-88
2022/09/05 10:01:20;;;;;;;13.60;10.25;;;;;;;;;;5003038;28;20118;-88
2022/09/05 10:04:10;;;;;;;15.77;9.98;;;;;;;;;;5019412;28;20061;-88
2022/09/05 10:06:41;;;;;;;13.00;9.25;;;;;;;;;;5018774;28;20060;-88
2022/09/05 10:09:19;;;;;;;12.38;7.93;;;;;;;;;;5020019;28;20043;-88
2022/09/05 10:12:26;;;;;;;11.52;8.45;;;;;;;;;;5006192;28;20503;-87
2022/09/05 10:15:19;;;;;;;10.65;7.80;;;;;;;;;;5046510;28;20044;-88
2022/09/05 10:18:03;;;;;;;10.35;6.85;;;;;;;;;;5038579;28;20067;-88
2022/09/05 10:20:47;;;;;;;10.18;6.63;;;;;;;;;;5055187;28;20483;-88
2022/09/05 10:23:33;;;;;;;9.45;6.22;;;;;;;;;;5054751;28;20090;-87
2022/09/05 10:26:50;;;;;;;7.75;5.63;;;;;;;;;;5054922;28;20047;-88
2022/09/05 10:29:54;;;;;;;7.70;5.22;;;;;;;;;;5014282;28;20041;-89
2022/09/05 10:32:21;;;;;;;8.88;5.18;;;;;;;;;;4983346;28;20052;-86
2022/09/05 10:35:23;;;;;;;7.95;5.28;;;;;;;;;;5037590;28;20031;-86
2022/09/05 10:38:02;;;;;;;4.30;2.95;;;;;;;;;;5037272;28;20094;-86
2022/09/05 10:40:27;;;;;;;7.00;2.78;;;;;;;;;;5016884;28;20037;-87
2022/09/05 10:43:08;;;;;;;4.45;2.28;;;;;;;;;;5014537;28;20413;-87
2022/09/05 10:45:51;;;;;;;3.70;1.97;;;;;;;;;;5006570;28;20036;-86
2022/09/05 10:48:21;;;;;;;2.33;1.23;;;;;;;;;;5018540;28;20040;-87
2022/09/05 10:51:14;;;;;;;3.45;1.15;;;;;;;;;;4984819;28;20082;-86
2022/09/05 10:53:49;;;;;;;2.90;1.00;;;;;;;;;;5003552;28;20044;-86
2022/09/05 10:56:20;;;;;;;1.83;1.02;;;;;;;;;;5017585;28;20037;-87
2022/09/05 10:59:00;;;;;;;2.80;0.98;;;;;;;;;;4985341;28;20033;-85
2022/09/05 11:01:38;;;;;;;3.65;1.20;;;;;;;;;;5017932;28;20099;-86
2022/09/05 11:04:32;;;;;;;1.88;0.80;;;;;;;;;;4984890;28;20029;-84
2022/09/05 11:07:17;;;;;;;2.35;0.60;;;;;;;;;;5032361;28;20032;-86
2022/09/05 11:09:45;;;;;;;1.00;0.50;;;;;;;;;;5028605;28;20057;-85
2022/09/05 11:12:17;;;;;;;2.30;0.65;;;;;;;;;;5050076;28;20123;-87
2022/09/05 11:14:51;;;;;;;3.95;0.93;;;;;;;;;;5017661;28;20029;-88
2022/09/05 11:17:30;;;;;;;2.25;0.80;;;;;;;;;;5001075;28;20033;-87
2022/09/05 11:20:16;;;;;;;1.33;0.60;;;;;;;;;;5017784;28;20069;-87
2022/09/05 11:22:42;;;;;;;2.80;0.90;;;;;;;;;;5034485;28;20045;-87
2022/09/05 11:25:26;;;;;;;2.47;0.63;;;;;;;;;;4981326;28;20154;-86
2022/09/05 11:27:52;;;;;;;1.95;0.73;;;;;;;;;;4965546;28;20036;-88
2022/09/05 11:30:29;;;;;;;16.73;3.97;;;;;;;;;;4982021;28;20037;-88
2022/09/05 11:33:32;;;;;;;12.43;3.47;;;;;;;;;;4981807;28;20128;-87
2022/09/05 11:35:58;;;;;;;7.20;1.67;;;;;;;;;;4997507;28;20029;-87
2022/09/05 11:38:45;;;;;;;3.63;1.30;;;;;;;;;;5015670;28;20048;-87
2022/09/05 11:41:38;;;;;;;6.55;1.63;;;;;;;;;;5030047;28;20120;-86
2022/09/05 11:44:15;;;;;;;3.67;1.35;;;;;;;;;;4997474;28;20407;-87
2022/09/05 11:46:46;;;;;;;3.75;1.10;;;;;;;;;;5013859;28;20095;-87
2022/09/05 11:49:34;;;;;;;3.80;1.48;;;;;;;;;;4997365;28;20042;-87
2022/09/05 11:52:28;;;;;;;2.28;0.95;;;;;;;;;;5002536;28;20506;-87
2022/09/05 11:55:15;;;;;;;3.47;1.13;;;;;;;;;;5017063;28;20033;-87
2022/09/05 11:58:11;;;;;;;2.05;0.77;;;;;;;;;;5017173;28;20037;-85
2022/09/05 12:00:40;;;;;;;2.83;1.23;;;;;;;;;;5016919;28;20041;-86
2022/09/05 12:03:18;;;;;;;22.95;20.55;;;;;;;;;;5017129;28;20103;-87
2022/09/05 12:06:03;;;;;;;53.33;44.53;;;;;;;;;;5017061;28;20027;-87
2022/09/05 12:08:38;;;;;;;68.72;52.70;;;;;;;;;;5033650;28;20037;-86
2022/09/05 12:11:19;;;;;;;61.78;50.30;;;;;;;;;;5000182;28;20586;-87
2022/09/05 12:14:05;;;;;;;33.30;26.33;;;;;;;;;;5052712;28;20585;-87
2022/09/05 12:16:55;;;;;;;27.25;18.50;;;;;;;;;;5020609;28;20068;-86
2022/09/05 12:19:40;;;;;;;16.88;12.40;;;;;;;;;;5020268;28;20036;-86
2022/09/05 12:22:22;;;;;;;11.38;9.57;;;;;;;;;;5020470;28;20033;-86
2022/09/05 12:25:07;;;;;;;;;;;;;;;;;;5020605;28;20127;-86
2022/09/05 12:27:35;;;;;;;8.90;5.03;;;;;;;;;;5036642;28;19912;-86
2022/09/05 12:30:10;;;;;;;3.80;2.33;;;;;;;;;;5004912;28;20037;-88
2022/09/05 12:32:50;;;;;;;8.07;2.80;;;;;;;;;;5003480;28;20116;-86
2022/09/05 12:35:35;;;;;;;4.65;2.03;;;;;;;;;;5003944;28;20052;-86
2022/09/05 12:38:01;;;;;;;3.05;2.15;;;;;;;;;;5003610;28;20036;-85
2022/09/05 12:40:29;;;;;;;4.13;2.35;;;;;;;;;;5016240;28;20025;-86
2022/09/05 12:43:02;;;;;;;8.82;3.97;;;;;;;;;;4984285;28;20026;-87
2022/09/05 12:45:33;;;;;;;9.48;3.83;;;;;;;;;;4991589;28;20036;-85
2022/09/05 12:48:17;;;;;;;9.05;2.95;;;;;;;;;;5035959;28;20136;-86
2022/09/05 12:50:58;;;;;;;4.22;1.67;;;;;;;;;;5035651;28;20068;-86
2022/09/05 12:53:23;;;;;;;3.72;1.58;;;;;;;;;;5037557;28;20491;-85
2022/09/05 12:56:01;;;;;;;4.28;1.95;;;;;;;;;;4987754;28;20047;-87
2022/09/05 12:58:34;;;;;;;3.92;1.90;;;;;;;;;;5002926;28;20056;-86
2022/09/05 13:01:26;;;;;;;3.58;1.55;;;;;;;;;;4987690;28;20539;-85
2022/09/05 13:03:59;;;;;;;9.00;7.00;;;;;;;;;;4999828;28;20422;-85
2022/09/05 13:06:40;;;;;;;15.98;11.75;;;;;;;;;;5003464;28;20515;-85
2022/09/05 13:09:32;;;;;;;15.85;11.25;;;;;;;;;;5003097;28;20123;-85
2022/09/05 13:12:04;;;;;;;14.98;10.65;;;;;;;;;;5035730;28;20037;-85
2022/09/05 13:14:35;;;;;;;10.70;7.05;;;;;;;;;;5035968;28;20037;-86
2022/09/05 13:17:03;;;;;;;7.65;4.88;;;;;;;;;;4987041;28;20037;-86
2022/09/05 13:19:36;;;;;;;5.88;3.45;;;;;;;;;;5019791;28;20087;-86
2022/09/05 13:22:01;;;;;;;4.47;2.53;;;;;;;;;;5018608;28;20036;-85
2022/09/05 13:24:30;;;;;;;5.20;3.28;;;;;;;;;;5001665;28;20032;-85
2022/09/05 13:26:57;;;;;;;5.32;2.33;;;;;;;;;;5002863;28;20043;-86
2022/09/05 13:29:26;;;;;;;5.47;2.47;;;;;;;;;;5019071;28;20922;-86
2022/09/05 13:32:04;;;;;;;4.28;2.35;;;;;;;;;;5002519;28;20056;-86
2022/09/05 13:34:35;;;;;;;5.13;3.10;;;;;;;;;;5002289;28;20499;-85
2022/09/05 13:37:09;;;;;;;3.80;2.63;;;;;;;;;;5018603;28;20518;-86
2022/09/05 13:39:53;;;;;;;4.95;2.55;;;;;;;;;;5002423;28;20041;-86
2022/09/05 13:42:21;;;;;;;3.70;2.28;;;;;;;;;;5003081;28;20549;-86
2022/09/05 13:44:57;;;;;;;4.32;2.17;;;;;;;;;;5035457;28;20037;-85
2022/09/05 13:47:42;;;;;;;3.60;2.50;;;;;;;;;;5003026;28;20079;-85
2022/09/05 13:50:45;;;;;;;3.85;2.03;;;;;;;;;;5017886;28;20041;-86
2022/09/05 13:53:20;;;;;;;3.10;2.00;;;;;;;;;;5019868;28;20603;-86
2022/09/05 13:55:54;;;;;;;2.88;1.85;;;;;;;;;;5019199;28;20041;-85
2022/09/05 13:58:22;;;;;;;5.15;2.33;;;;;;;;;;4986227;28;20033;-86
2022/09/05 14:01:07;;;;;;;4.13;2.25;;;;;;;;;;5018495;28;20033;-86
2022/09/05 14:03:37;;;;;;;3.45;1.80;;;;;;;;;;5019118;28;20159;-88
2022/09/05 14:06:19;;;;;;;4.82;2.15;;;;;;;;;;5002937;28;20039;-86
2022/09/05 14:08:50;;;;;;;4.93;1.92;;;;;;;;;;5018733;28;20112;-85
2022/09/05 14:11:30;;;;;;;2.50;1.70;;;;;;;;;;5019527;28;20542;-86
2022/09/05 14:14:09;;;;;;;3.08;1.60;;;;;;;;;;5037506;28;20040;-86
2022/09/05 14:16:39;;;;;;;3.33;1.35;;;;;;;;;;5020903;28;20069;-86
2022/09/05 14:21:48;;;;;;;3.13;1.25;;;;;;;;;;5022823;28;20174;-87
2022/09/05 14:24:17;;;;;;;4.93;1.20;;;;;;;;;;5004831;28;20029;-88
2022/09/05 14:26:48;;;;;;;7.55;1.35;;;;;;;;;;4988451;28;20072;-88
2022/09/05 14:29:46;;;;;;;4.15;1.40;;;;;;;;;;4988953;28;20037;-87
2022/09/05 14:32:14;;;;;;;2.10;0.90;;;;;;;;;;5041958;28;20049;-87
2022/09/05 14:34:54;;;;;;;4.32;1.20;;;;;;;;;;5020289;28;20033;-87
2022/09/05 14:37:25;;;;;;;2.47;0.70;;;;;;;;;;5037212;28;20035;-88
2022/09/05 14:40:28;;;;;;;3.28;0.90;;;;;;;;;;4988660;28;20032;-88
2022/09/05 14:43:19;;;;;;;5.40;1.10;;;;;;;;;;5020446;28;20041;-88
2022/09/05 14:46:29;;;;;;;8.18;1.40;;;;;;;;;;5024234;28;20384;-88
2022/09/05 14:49:13;;;;;;;8.85;2.28;;;;;;;;;;4986444;28;20503;-89
2022/09/05 14:51:46;;;;;;;22.13;3.30;;;;;;;;;;5039046;28;20033;-89
2022/09/05 14:54:21;;;;;;;12.32;3.20;;;;;;;;;;5006028;28;20037;-89
2022/09/05 14:56:58;;;;;;;5.07;1.13;;;;;;;;;;5053529;28;20159;-87
2022/09/05 14:59:37;;;;;;;10.93;3.13;;;;;;;;;;4991327;28;20418;-86
2022/09/05 15:02:32;;;;;;;29.55;4.07;;;;;;;;;;5020850;28;20040;-85
2022/09/05 15:04:59;;;;;;;13.40;3.00;;;;;;;;;;5041293;28;20033;-85
2022/09/05 15:07:43;;;;;;;22.10;3.03;;;;;;;;;;5007743;28;20041;-84
2022/09/05 15:10:15;;;;;;;17.70;4.05;;;;;;;;;;5022536;28;20053;-83
2022/09/05 15:12:47;;;;;;;22.15;3.42;;;;;;;;;;5036997;28;20037;-85
2022/09/05 15:15:21;;;;;;;2.45;1.00;;;;;;;;;;5001013;28;20045;-84
2022/09/05 15:17:49;;;;;;;8.07;1.70;;;;;;;;;;5032904;28;20500;-83
2022/09/05 15:20:35;;;;;;;4.57;1.52;;;;;;;;;;5001153;28;20143;-84
2022/09/05 15:23:10;;;;;;;15.00;2.30;;;;;;;;;;5016320;28;20038;-85
2022/09/05 15:26:03;;;;;;;6.03;1.38;;;;;;;;;;5004344;28;20500;-85
2022/09/05 15:28:42;;;;;;;4.43;1.90;;;;;;;;;;4987602;28;20041;-84
2022/09/05 15:31:18;;;;;;;4.63;1.77;;;;;;;;;;5018454;28;20037;-84
2022/09/05 15:33:44;;;;;;;4.28;2.70;;;;;;;;;;5015157;28;20072;-83
2022/09/05 15:36:12;;;;;;;7.78;2.50;;;;;;;;;;5035100;28;20408;-84
2022/09/05 15:38:39;;;;;;;3.42;1.45;;;;;;;;;;4990792;28;20072;-84
2022/09/05 15:41:09;;;;;;;4.28;1.33;;;;;;;;;;5037972;28;20064;-84
2022/09/05 15:43:37;;;;;;;6.72;1.40;;;;;;;;;;5039487;28;20029;-85
2022/09/05 15:46:03;;;;;;;3.45;0.90;;;;;;;;;;5024663;28;20452;-86
2022/09/05 15:48:31;;;;;;;2.25;1.40;;;;;;;;;;5027075;28;20060;-84
2022/09/05 15:50:57;;;;;;;3.90;1.17;;;;;;;;;;5007338;28;20095;-85
2022/09/05 15:53:25;;;;;;;3.45;1.38;;;;;;;;;;5009185;28;20483;-84
2022/09/05 15:55:51;;;;;;;2.22;0.98;;;;;;;;;;4991454;28;20029;-84
2022/09/05 15:58:16;;;;;;;3.33;1.42;;;;;;;;;;5024263;28;20039;-84
2022/09/05 16:00:47;;;;;;;3.50;0.98;;;;;;;;;;4993365;28;20128;-84
2022/09/05 16:03:12;;;;;;;5.10;1.30;;;;;;;;;;5008378;28;20036;-85
2022/09/05 16:05:37;;;;;;;3.60;1.25;;;;;;;;;;5025421;28;20036;-84
2022/09/05 16:08:07;;;;;;;3.63;1.20;;;;;;;;;;5010497;28;20112;-85
2022/09/05 16:10:33;;;;;;;4.28;0.93;;;;;;;;;;5025459;28;20039;-84
2022/09/05 16:13:05;;;;;;;2.00;0.95;;;;;;;;;;5026996;28;20406;-85
2022/09/05 16:15:37;;;;;;;;;;;;;;;;;;5007983;28;20453;-82
2022/09/05 16:18:24;;;;;;;2.50;1.00;;;;;;;;;;5028634;28;19920;-85
2022/09/05 16:20:52;;;;;;;3.80;1.00;;;;;;;;;;5037246;28;20077;-86
2022/09/05 16:23:25;;;;;;;3.08;1.17;;;;;;;;;;4987353;28;20033;-85
2022/09/05 16:26:00;;;;;;;2.90;1.00;;;;;;;;;;5036261;28;20098;-87
2022/09/05 16:28:30;;;;;;;4.32;1.10;;;;;;;;;;5004679;28;20040;-87
2022/09/05 16:31:01;;;;;;;1.27;0.65;;;;;;;;;;5020381;28;20458;-86
2022/09/05 16:33:29;;;;;;;3.67;1.13;;;;;;;;;;5019904;28;20036;-84
2022/09/05 16:36:00;;;;;;;4.28;1.48;;;;;;;;;;5020617;28;20116;-86
2022/09/05 16:38:47;;;;;;;3.67;1.00;;;;;;;;;;5002426;28;20132;-85